sensor_id;sensor_type;location;lat;lon;timestamp;temperature;humidity
75387;DHT22;63966;47.914;22.266;2022-10-17T00:02:15;6.85;90.51
75387;DHT22;63966;47.914;22.266;2022-10-17T00:05:19;6.82;90.44
75387;DHT22;63966;47.914;22.266;2022-10-17T00:08:22;6.75;90.66
75387;DHT22;63966;47.914;22.266;2022-10-17T00:11:25;6.74;90.79
75387;DHT22;63966;47.914;22.266;2022-10-17T00:14:29;6.75;90.58
75387;DHT22;63966;47.914;22.266;2022-10-17T00:17:32;6.72;90.38
75387;DHT22;63966;47.914;22.266;2022-10-17T00:20:36;6.59;90.13
75387;DHT22;63966;47.914;22.266;2022-10-17T00:23:39;6.55;90.41
75387;DHT22;63966;47.914;22.266;2022-10-17T00:26:43;6.57;90.55
75387;DHT22;63966;47.914;22.266;2022-10-17T00:29:50;6.51;90.66
75387;DHT22;63966;47.914;22.266;2022-10-17T00:32:54;6.52;90.59
75387;DHT22;63966;47.914;22.266;2022-10-17T00:36:12;6.55;90.72
75387;DHT22;63966;47.914;22.266;2022-10-17T00:39:15;6.52;90.57
75387;DHT22;63966;47.914;22.266;2022-10-17T00:42:19;6.44;90.84
75387;DHT22;63966;47.914;22.266;2022-10-17T00:45:24;6.42;91.13
75387;DHT22;63966;47.914;22.266;2022-10-17T00:48:28;6.38;90.99
75387;DHT22;63966;47.914;22.266;2022-10-17T00:51:45;6.40;91.10
75387;DHT22;63966;47.914;22.266;2022-10-17T00:55:00;6.45;91.10
75387;DHT22;63966;47.914;22.266;2022-10-17T00:58:05;6.42;91.00
75387;DHT22;63966;47.914;22.266;2022-10-17T01:01:08;6.47;90.96
75387;DHT22;63966;47.914;22.266;2022-10-17T01:04:12;6.42;90.88
75387;DHT22;63966;47.914;22.266;2022-10-17T01:07:15;6.44;91.04
75387;DHT22;63966;47.914;22.266;2022-10-17T01:10:20;6.50;91.53
75387;DHT22;63966;47.914;22.266;2022-10-17T01:13:35;6.44;91.41
75387;DHT22;63966;47.914;22.266;2022-10-17T01:37:52;6.63;90.85
75387;DHT22;63966;47.914;22.266;2022-10-17T01:48:01;6.23;91.94
75387;DHT22;63966;47.914;22.266;2022-10-17T01:51:16;6.23;93.22
75387;DHT22;63966;47.914;22.266;2022-10-17T01:54:24;6.24;93.37
75387;DHT22;63966;47.914;22.266;2022-10-17T01:57:37;6.23;92.57
75387;DHT22;63966;47.914;22.266;2022-10-17T02:00:43;5.98;92.32
75387;DHT22;63966;47.914;22.266;2022-10-17T02:03:49;6.10;93.22
75387;DHT22;63966;47.914;22.266;2022-10-17T02:06:53;6.19;92.98
75387;DHT22;63966;47.914;22.266;2022-10-17T02:09:56;6.21;92.62
75387;DHT22;63966;47.914;22.266;2022-10-17T02:13:19;6.23;92.16
75387;DHT22;63966;47.914;22.266;2022-10-17T02:16:41;6.37;93.73
75387;DHT22;63966;47.914;22.266;2022-10-17T02:19:47;6.59;94.73
75387;DHT22;63966;47.914;22.266;2022-10-17T02:22:58;6.61;94.86
75387;DHT22;63966;47.914;22.266;2022-10-17T02:26:08;6.65;94.68
75387;DHT22;63966;47.914;22.266;2022-10-17T02:29:28;6.68;94.94
75387;DHT22;63966;47.914;22.266;2022-10-17T02:32:53;6.77;95.21
75387;DHT22;63966;47.914;22.266;2022-10-17T02:36:01;6.57;93.85
75387;DHT22;63966;47.914;22.266;2022-10-17T02:39:08;6.57;94.32
75387;DHT22;63966;47.914;22.266;2022-10-17T02:42:19;6.48;94.11
75387;DHT22;63966;47.914;22.266;2022-10-17T02:45:26;6.47;93.45
75387;DHT22;63966;47.914;22.266;2022-10-17T02:48:50;6.42;93.52
75387;DHT22;63966;47.914;22.266;2022-10-17T02:52:11;6.36;92.34
75387;DHT22;63966;47.914;22.266;2022-10-17T02:55:31;6.36;92.90
75387;DHT22;63966;47.914;22.266;2022-10-17T02:58:36;6.29;92.31
75387;DHT22;63966;47.914;22.266;2022-10-17T03:01:40;6.24;91.91
75387;DHT22;63966;47.914;22.266;2022-10-17T03:04:45;6.20;91.85
75387;DHT22;63966;47.914;22.266;2022-10-17T03:07:51;6.06;91.34
75387;DHT22;63966;47.914;22.266;2022-10-17T03:10:55;6.10;91.63
75387;DHT22;63966;47.914;22.266;2022-10-17T03:14:01;6.07;91.94
75387;DHT22;63966;47.914;22.266;2022-10-17T03:17:04;5.98;91.65
75387;DHT22;63966;47.914;22.266;2022-10-17T03:20:08;5.99;92.51
75387;DHT22;63966;47.914;22.266;2022-10-17T03:23:11;6.02;92.54
75387;DHT22;63966;47.914;22.266;2022-10-17T03:26:15;6.03;92.22
75387;DHT22;63966;47.914;22.266;2022-10-17T03:29:19;5.88;91.51
75387;DHT22;63966;47.914;22.266;2022-10-17T03:32:23;5.75;91.40
75387;DHT22;63966;47.914;22.266;2022-10-17T03:35:26;5.72;91.95
75387;DHT22;63966;47.914;22.266;2022-10-17T03:38:30;5.66;91.87
75387;DHT22;63966;47.914;22.266;2022-10-17T03:41:34;5.63;91.58
75387;DHT22;63966;47.914;22.266;2022-10-17T03:44:37;5.58;91.43
75387;DHT22;63966;47.914;22.266;2022-10-17T03:47:41;5.61;91.50
75387;DHT22;63966;47.914;22.266;2022-10-17T03:50:45;5.65;92.16
75387;DHT22;63966;47.914;22.266;2022-10-17T03:53:49;5.82;94.10
75387;DHT22;63966;47.914;22.266;2022-10-17T03:56:52;5.92;95.30
75387;DHT22;63966;47.914;22.266;2022-10-17T03:59:56;5.88;95.29
75387;DHT22;63966;47.914;22.266;2022-10-17T04:02:59;5.69;93.82
75387;DHT22;63966;47.914;22.266;2022-10-17T04:06:04;5.56;92.63
75387;DHT22;63966;47.914;22.266;2022-10-17T04:09:10;5.42;92.07
75387;DHT22;63966;47.914;22.266;2022-10-17T04:12:24;5.31;92.27
75387;DHT22;63966;47.914;22.266;2022-10-17T04:15:28;5.20;92.84
75387;DHT22;63966;47.914;22.266;2022-10-17T04:18:32;5.20;93.05
75387;DHT22;63966;47.914;22.266;2022-10-17T04:21:35;5.10;92.99
75387;DHT22;63966;47.914;22.266;2022-10-17T04:24:41;5.13;93.09
75387;DHT22;63966;47.914;22.266;2022-10-17T04:27:53;5.10;93.13
75387;DHT22;63966;47.914;22.266;2022-10-17T04:31:05;5.14;93.15
75387;DHT22;63966;47.914;22.266;2022-10-17T04:34:19;5.21;93.52
75387;DHT22;63966;47.914;22.266;2022-10-17T04:37:23;5.27;93.78
75387;DHT22;63966;47.914;22.266;2022-10-17T04:40:29;5.34;93.57
75387;DHT22;63966;47.914;22.266;2022-10-17T04:43:35;5.41;93.47
75387;DHT22;63966;47.914;22.266;2022-10-17T04:46:40;5.44;93.02
75387;DHT22;63966;47.914;22.266;2022-10-17T04:49:43;5.59;93.76
75387;DHT22;63966;47.914;22.266;2022-10-17T04:52:50;5.69;93.86
75387;DHT22;63966;47.914;22.266;2022-10-17T04:55:54;5.73;93.65
75387;DHT22;63966;47.914;22.266;2022-10-17T04:58:58;5.72;93.08
75387;DHT22;63966;47.914;22.266;2022-10-17T05:02:02;5.72;92.23
75387;DHT22;63966;47.914;22.266;2022-10-17T05:05:06;5.81;91.79
75387;DHT22;63966;47.914;22.266;2022-10-17T05:08:11;6.10;91.75
75387;DHT22;63966;47.914;22.266;2022-10-17T05:11:26;6.33;91.96
75387;DHT22;63966;47.914;22.266;2022-10-17T05:14:30;6.58;91.07
75387;DHT22;63966;47.914;22.266;2022-10-17T05:17:33;6.86;88.70
75387;DHT22;63966;47.914;22.266;2022-10-17T05:20:37;7.13;87.18
75387;DHT22;63966;47.914;22.266;2022-10-17T05:23:41;7.47;85.34
75387;DHT22;63966;47.914;22.266;2022-10-17T05:26:45;7.92;83.69
75387;DHT22;63966;47.914;22.266;2022-10-17T05:29:48;8.61;81.08
75387;DHT22;63966;47.914;22.266;2022-10-17T05:33:00;9.35;79.95
75387;DHT22;63966;47.914;22.266;2022-10-17T05:36:05;9.90;77.96
75387;DHT22;63966;47.914;22.266;2022-10-17T05:39:11;10.18;76.28
75387;DHT22;63966;47.914;22.266;2022-10-17T05:42:17;10.72;74.94
75387;DHT22;63966;47.914;22.266;2022-10-17T05:45:21;11.52;73.06
75387;DHT22;63966;47.914;22.266;2022-10-17T05:48:24;12.49;70.32
75387;DHT22;63966;47.914;22.266;2022-10-17T05:51:28;13.23;66.53
75387;DHT22;63966;47.914;22.266;2022-10-17T05:54:32;13.65;65.53
75387;DHT22;63966;47.914;22.266;2022-10-17T05:57:36;14.01;64.94
75387;DHT22;63966;47.914;22.266;2022-10-17T06:00:43;14.73;63.70
75387;DHT22;63966;47.914;22.266;2022-10-17T06:03:48;15.05;61.91
75387;DHT22;63966;47.914;22.266;2022-10-17T06:06:55;15.13;62.62
75387;DHT22;63966;47.914;22.266;2022-10-17T06:09:59;15.44;62.17
75387;DHT22;63966;47.914;22.266;2022-10-17T06:13:03;15.83;61.33
75387;DHT22;63966;47.914;22.266;2022-10-17T06:16:07;16.01;60.71
75387;DHT22;63966;47.914;22.266;2022-10-17T06:19:10;16.36;59.98
75387;DHT22;63966;47.914;22.266;2022-10-17T06:22:15;16.70;59.12
75387;DHT22;63966;47.914;22.266;2022-10-17T06:25:19;17.07;59.00
75387;DHT22;63966;47.914;22.266;2022-10-17T06:28:22;16.93;58.61
75387;DHT22;63966;47.914;22.266;2022-10-17T06:31:26;17.28;57.66
75387;DHT22;63966;47.914;22.266;2022-10-17T06:34:29;17.46;57.25
75387;DHT22;63966;47.914;22.266;2022-10-17T06:37:33;17.90;56.10
75387;DHT22;63966;47.914;22.266;2022-10-17T06:40:42;18.13;55.52
75387;DHT22;63966;47.914;22.266;2022-10-17T06:43:46;18.11;55.54
75387;DHT22;63966;47.914;22.266;2022-10-17T06:47:09;17.89;56.17
75387;DHT22;63966;47.914;22.266;2022-10-17T06:50:13;18.31;55.11
75387;DHT22;63966;47.914;22.266;2022-10-17T06:53:22;18.30;55.52
75387;DHT22;63966;47.914;22.266;2022-10-17T06:57:00;18.30;56.42
75387;DHT22;63966;47.914;22.266;2022-10-17T07:00:30;18.59;54.85
75387;DHT22;63966;47.914;22.266;2022-10-17T07:03:34;19.20;54.77
75387;DHT22;63966;47.914;22.266;2022-10-17T07:06:38;19.84;52.96
75387;DHT22;63966;47.914;22.266;2022-10-17T07:09:52;19.81;52.00
75387;DHT22;63966;47.914;22.266;2022-10-17T07:12:57;19.81;52.93
75387;DHT22;63966;47.914;22.266;2022-10-17T07:16:01;20.19;51.74
75387;DHT22;63966;47.914;22.266;2022-10-17T07:19:06;20.20;52.36
75387;DHT22;63966;47.914;22.266;2022-10-17T07:22:12;20.11;52.78
75387;DHT22;63966;47.914;22.266;2022-10-17T07:25:19;20.23;52.50
75387;DHT22;63966;47.914;22.266;2022-10-17T07:28:27;20.59;51.88
75387;DHT22;63966;47.914;22.266;2022-10-17T07:31:34;20.64;51.79
75387;DHT22;63966;47.914;22.266;2022-10-17T07:34:38;20.98;51.11
75387;DHT22;63966;47.914;22.266;2022-10-17T07:37:43;21.32;50.10
75387;DHT22;63966;47.914;22.266;2022-10-17T07:40:57;21.22;51.32
75387;DHT22;63966;47.914;22.266;2022-10-17T07:44:00;20.80;51.48
75387;DHT22;63966;47.914;22.266;2022-10-17T07:47:09;20.56;53.30
75387;DHT22;63966;47.914;22.266;2022-10-17T07:50:13;19.44;56.34
75387;DHT22;63966;47.914;22.266;2022-10-17T07:53:17;18.69;57.76
75387;DHT22;63966;47.914;22.266;2022-10-17T07:56:20;18.14;60.03
75387;DHT22;63966;47.914;22.266;2022-10-17T07:59:26;17.59;61.99
75387;DHT22;63966;47.914;22.266;2022-10-17T08:02:30;17.14;64.29
75387;DHT22;63966;47.914;22.266;2022-10-17T08:05:34;16.73;65.49
75387;DHT22;63966;47.914;22.266;2022-10-17T08:08:37;16.45;68.21
75387;DHT22;63966;47.914;22.266;2022-10-17T08:11:42;16.49;69.57
75387;DHT22;63966;47.914;22.266;2022-10-17T08:14:46;16.66;67.62
75387;DHT22;63966;47.914;22.266;2022-10-17T08:17:50;16.33;68.54
75387;DHT22;63966;47.914;22.266;2022-10-17T08:20:54;16.05;68.96
75387;DHT22;63966;47.914;22.266;2022-10-17T08:24:02;16.17;68.61
75387;DHT22;63966;47.914;22.266;2022-10-17T08:27:06;16.21;68.61
75387;DHT22;63966;47.914;22.266;2022-10-17T08:30:15;16.26;69.00
75387;DHT22;63966;47.914;22.266;2022-10-17T08:33:18;16.22;69.05
75387;DHT22;63966;47.914;22.266;2022-10-17T08:36:21;16.52;68.30
75387;DHT22;63966;47.914;22.266;2022-10-17T08:39:25;16.53;67.91
75387;DHT22;63966;47.914;22.266;2022-10-17T08:46:01;16.77;70.50
75387;DHT22;63966;47.914;22.266;2022-10-17T08:49:12;16.86;67.53
75387;DHT22;63966;47.914;22.266;2022-10-17T08:52:34;16.90;68.28
75387;DHT22;63966;47.914;22.266;2022-10-17T08:55:46;17.06;67.63
75387;DHT22;63966;47.914;22.266;2022-10-17T08:58:49;17.11;68.10
75387;DHT22;63966;47.914;22.266;2022-10-17T09:09:22;17.25;65.15
75387;DHT22;63966;47.914;22.266;2022-10-17T09:12:26;17.28;65.17
75387;DHT22;63966;47.914;22.266;2022-10-17T09:22:34;17.61;65.78
75387;DHT22;63966;47.914;22.266;2022-10-17T09:25:45;17.72;65.29
75387;DHT22;63966;47.914;22.266;2022-10-17T09:28:55;17.73;64.50
75387;DHT22;63966;47.914;22.266;2022-10-17T09:32:04;17.82;63.00
75387;DHT22;63966;47.914;22.266;2022-10-17T09:35:14;17.80;65.28
75387;DHT22;63966;47.914;22.266;2022-10-17T09:38:20;17.80;64.28
75387;DHT22;63966;47.914;22.266;2022-10-17T09:41:38;17.80;65.51
75387;DHT22;63966;47.914;22.266;2022-10-17T09:44:54;17.85;64.79
75387;DHT22;63966;47.914;22.266;2022-10-17T09:49:00;18.07;63.99
75387;DHT22;63966;47.914;22.266;2022-10-17T09:51:43;18.09;63.11
75387;DHT22;63966;47.914;22.266;2022-10-17T09:54:53;18.16;63.50
75387;DHT22;63966;47.914;22.266;2022-10-17T09:58:00;18.23;62.69
75387;DHT22;63966;47.914;22.266;2022-10-17T10:04:24;18.43;62.55
75387;DHT22;63966;47.914;22.266;2022-10-17T10:07:37;18.37;63.11
75387;DHT22;63966;47.914;22.266;2022-10-17T10:10:41;18.41;60.69
75387;DHT22;63966;47.914;22.266;2022-10-17T10:13:47;18.47;60.60
75387;DHT22;63966;47.914;22.266;2022-10-17T10:16:51;18.43;61.83
75387;DHT22;63966;47.914;22.266;2022-10-17T10:19:58;18.51;62.17
75387;DHT22;63966;47.914;22.266;2022-10-17T10:23:19;18.57;63.02
75387;DHT22;63966;47.914;22.266;2022-10-17T10:29:57;18.58;59.63
75387;DHT22;63966;47.914;22.266;2022-10-17T10:33:00;18.65;59.08
75387;DHT22;63966;47.914;22.266;2022-10-17T10:36:05;18.67;60.36
75387;DHT22;63966;47.914;22.266;2022-10-17T10:39:27;18.59;58.45
75387;DHT22;63966;47.914;22.266;2022-10-17T10:42:34;18.68;58.47
75387;DHT22;63966;47.914;22.266;2022-10-17T10:49:00;18.73;59.09
75387;DHT22;63966;47.914;22.266;2022-10-17T10:52:05;18.76;59.07
75387;DHT22;63966;47.914;22.266;2022-10-17T11:01:58;19.03;57.57
75387;DHT22;63966;47.914;22.266;2022-10-17T11:05:16;19.12;58.59
75387;DHT22;63966;47.914;22.266;2022-10-17T11:08:50;19.12;58.38
75387;DHT22;63966;47.914;22.266;2022-10-17T11:12:04;19.12;57.96
75387;DHT22;63966;47.914;22.266;2022-10-17T11:15:28;19.23;56.50
75387;DHT22;63966;47.914;22.266;2022-10-17T11:18:47;19.36;56.34
75387;DHT22;63966;47.914;22.266;2022-10-17T11:22:14;19.38;55.67
75387;DHT22;63966;47.914;22.266;2022-10-17T11:28:31;19.40;55.52
75387;DHT22;63966;47.914;22.266;2022-10-17T11:31:38;19.38;54.75
75387;DHT22;63966;47.914;22.266;2022-10-17T11:34:46;19.31;55.00
75387;DHT22;63966;47.914;22.266;2022-10-17T11:44:57;19.27;55.58
75387;DHT22;63966;47.914;22.266;2022-10-17T11:48:11;19.23;55.26
75387;DHT22;63966;47.914;22.266;2022-10-17T11:51:16;19.23;56.48
75387;DHT22;63966;47.914;22.266;2022-10-17T11:54:44;19.20;55.52
75387;DHT22;63966;47.914;22.266;2022-10-17T11:58:11;19.09;56.27
75387;DHT22;63966;47.914;22.266;2022-10-17T12:14:53;19.10;56.67
75387;DHT22;63966;47.914;22.266;2022-10-17T12:18:00;19.02;54.84
75387;DHT22;63966;47.914;22.266;2022-10-17T12:21:05;19.05;55.92
75387;DHT22;63966;47.914;22.266;2022-10-17T12:24:30;19.27;56.91
75387;DHT22;63966;47.914;22.266;2022-10-17T12:27:40;19.33;55.66
75387;DHT22;63966;47.914;22.266;2022-10-17T12:31:13;19.31;56.08
75387;DHT22;63966;47.914;22.266;2022-10-17T12:34:34;19.23;55.93
75387;DHT22;63966;47.914;22.266;2022-10-17T12:40:56;19.20;56.64
75387;DHT22;63966;47.914;22.266;2022-10-17T12:43:59;19.34;55.95
75387;DHT22;63966;47.914;22.266;2022-10-17T12:54:14;19.20;57.64
75387;DHT22;63966;47.914;22.266;2022-10-17T13:00:59;19.38;56.54
75387;DHT22;63966;47.914;22.266;2022-10-17T13:04:23;19.19;56.09
75387;DHT22;63966;47.914;22.266;2022-10-17T13:07:28;19.12;56.50
75387;DHT22;63966;47.914;22.266;2022-10-17T13:10:35;19.33;56.00
75387;DHT22;63966;47.914;22.266;2022-10-17T13:13:49;19.20;55.85
75387;DHT22;63966;47.914;22.266;2022-10-17T13:16:58;19.10;56.35
75387;DHT22;63966;47.914;22.266;2022-10-17T13:20:02;18.92;56.88
75387;DHT22;63966;47.914;22.266;2022-10-17T13:23:19;19.02;56.37
75387;DHT22;63966;47.914;22.266;2022-10-17T13:26:26;19.20;55.48
75387;DHT22;63966;47.914;22.266;2022-10-17T13:29:30;19.17;55.87
75387;DHT22;63966;47.914;22.266;2022-10-17T13:32:37;19.23;55.04
75387;DHT22;63966;47.914;22.266;2022-10-17T13:35:40;19.15;55.67
75387;DHT22;63966;47.914;22.266;2022-10-17T13:39:06;19.12;55.23
75387;DHT22;63966;47.914;22.266;2022-10-17T13:42:26;19.16;54.96
75387;DHT22;63966;47.914;22.266;2022-10-17T13:45:36;19.19;54.84
75387;DHT22;63966;47.914;22.266;2022-10-17T13:48:40;19.26;54.75
75387;DHT22;63966;47.914;22.266;2022-10-17T13:51:47;19.43;54.73
75387;DHT22;63966;47.914;22.266;2022-10-17T13:54:52;19.19;54.19
75387;DHT22;63966;47.914;22.266;2022-10-17T13:57:55;19.24;54.15
75387;DHT22;63966;47.914;22.266;2022-10-17T14:01:11;19.23;55.74
75387;DHT22;63966;47.914;22.266;2022-10-17T14:04:16;19.34;54.19
75387;DHT22;63966;47.914;22.266;2022-10-17T14:07:36;19.13;54.82
75387;DHT22;63966;47.914;22.266;2022-10-17T14:11:01;18.99;56.26
75387;DHT22;63966;47.914;22.266;2022-10-17T14:14:07;18.94;56.79
75387;DHT22;63966;47.914;22.266;2022-10-17T14:17:24;18.86;57.79
75387;DHT22;63966;47.914;22.266;2022-10-17T14:20:28;18.82;57.99
75387;DHT22;63966;47.914;22.266;2022-10-17T14:24:10;18.73;57.97
75387;DHT22;63966;47.914;22.266;2022-10-17T14:27:29;18.61;58.04
75387;DHT22;63966;47.914;22.266;2022-10-17T14:30:41;18.58;58.94
75387;DHT22;63966;47.914;22.266;2022-10-17T14:34:02;18.40;59.66
75387;DHT22;63966;47.914;22.266;2022-10-17T14:40:25;18.07;59.67
75387;DHT22;63966;47.914;22.266;2022-10-17T14:43:29;18.10;59.91
75387;DHT22;63966;47.914;22.266;2022-10-17T14:46:35;18.07;60.62
75387;DHT22;63966;47.914;22.266;2022-10-17T14:49:40;17.94;61.48
75387;DHT22;63966;47.914;22.266;2022-10-17T14:53:02;17.79;61.64
75387;DHT22;63966;47.914;22.266;2022-10-17T14:56:22;17.58;62.08
75387;DHT22;63966;47.914;22.266;2022-10-17T14:59:26;17.45;61.92
75387;DHT22;63966;47.914;22.266;2022-10-17T15:02:50;17.39;62.98
75387;DHT22;63966;47.914;22.266;2022-10-17T15:05:55;17.32;63.15
75387;DHT22;63966;47.914;22.266;2022-10-17T15:08:58;17.28;63.12
75387;DHT22;63966;47.914;22.266;2022-10-17T15:12:05;17.27;63.82
75387;DHT22;63966;47.914;22.266;2022-10-17T15:15:09;17.07;65.76
75387;DHT22;63966;47.914;22.266;2022-10-17T15:18:13;16.83;67.15
75387;DHT22;63966;47.914;22.266;2022-10-17T15:21:19;16.69;67.96
75387;DHT22;63966;47.914;22.266;2022-10-17T15:24:35;16.44;69.20
75387;DHT22;63966;47.914;22.266;2022-10-17T15:27:39;16.29;70.47
75387;DHT22;63966;47.914;22.266;2022-10-17T15:30:43;16.12;71.60
75387;DHT22;63966;47.914;22.266;2022-10-17T15:33:47;15.86;73.21
75387;DHT22;63966;47.914;22.266;2022-10-17T15:36:51;15.64;74.03
75387;DHT22;63966;47.914;22.266;2022-10-17T15:39:56;15.46;74.54
75387;DHT22;63966;47.914;22.266;2022-10-17T15:42:59;15.26;76.50
75387;DHT22;63966;47.914;22.266;2022-10-17T15:46:03;15.16;75.93
75387;DHT22;63966;47.914;22.266;2022-10-17T15:49:13;15.08;75.52
75387;DHT22;63966;47.914;22.266;2022-10-17T15:52:17;14.96;76.12
75387;DHT22;63966;47.914;22.266;2022-10-17T15:55:20;14.83;78.42
75387;DHT22;63966;47.914;22.266;2022-10-17T15:58:24;14.64;79.55
75387;DHT22;63966;47.914;22.266;2022-10-17T16:01:31;14.48;80.71
75387;DHT22;63966;47.914;22.266;2022-10-17T16:04:35;14.27;81.55
75387;DHT22;63966;47.914;22.266;2022-10-17T16:07:38;14.17;81.21
75387;DHT22;63966;47.914;22.266;2022-10-17T16:10:42;14.06;81.46
75387;DHT22;63966;47.914;22.266;2022-10-17T16:13:51;14.02;82.15
75387;DHT22;63966;47.914;22.266;2022-10-17T16:16:55;13.98;83.06
75387;DHT22;63966;47.914;22.266;2022-10-17T16:20:02;13.82;84.01
75387;DHT22;63966;47.914;22.266;2022-10-17T16:23:06;13.68;84.38
75387;DHT22;63966;47.914;22.266;2022-10-17T16:26:10;13.74;84.56
75387;DHT22;63966;47.914;22.266;2022-10-17T16:29:16;13.77;85.54
75387;DHT22;63966;47.914;22.266;2022-10-17T16:32:20;13.74;84.82
75387;DHT22;63966;47.914;22.266;2022-10-17T16:35:28;13.57;84.55
75387;DHT22;63966;47.914;22.266;2022-10-17T16:38:38;13.34;85.08
75387;DHT22;63966;47.914;22.266;2022-10-17T16:41:42;13.21;85.61
75387;DHT22;63966;47.914;22.266;2022-10-17T16:44:45;13.12;86.54
75387;DHT22;63966;47.914;22.266;2022-10-17T16:47:49;13.07;86.60
75387;DHT22;63966;47.914;22.266;2022-10-17T16:50:53;13.02;86.37
75387;DHT22;63966;47.914;22.266;2022-10-17T16:53:57;12.88;86.80
75387;DHT22;63966;47.914;22.266;2022-10-17T16:57:03;12.82;86.81
75387;DHT22;63966;47.914;22.266;2022-10-17T17:00:07;12.82;87.39
75387;DHT22;63966;47.914;22.266;2022-10-17T17:03:11;12.81;87.44
75387;DHT22;63966;47.914;22.266;2022-10-17T17:06:16;12.79;87.16
75387;DHT22;63966;47.914;22.266;2022-10-17T17:09:21;12.65;87.35
75387;DHT22;63966;47.914;22.266;2022-10-17T17:12:24;12.52;87.52
75387;DHT22;63966;47.914;22.266;2022-10-17T17:15:27;12.42;87.46
75387;DHT22;63966;47.914;22.266;2022-10-17T17:18:31;12.30;88.06
75387;DHT22;63966;47.914;22.266;2022-10-17T17:21:34;12.16;88.41
75387;DHT22;63966;47.914;22.266;2022-10-17T17:24:38;12.06;88.23
75387;DHT22;63966;47.914;22.266;2022-10-17T17:27:42;11.96;88.50
75387;DHT22;63966;47.914;22.266;2022-10-17T17:30:45;11.89;88.59
75387;DHT22;63966;47.914;22.266;2022-10-17T17:33:49;11.83;88.89
75387;DHT22;63966;47.914;22.266;2022-10-17T17:36:53;11.77;89.09
75387;DHT22;63966;47.914;22.266;2022-10-17T17:39:57;11.69;89.20
75387;DHT22;63966;47.914;22.266;2022-10-17T17:43:00;11.66;89.87
75387;DHT22;63966;47.914;22.266;2022-10-17T17:46:04;11.57;89.20
75387;DHT22;63966;47.914;22.266;2022-10-17T17:49:08;11.51;89.34
75387;DHT22;63966;47.914;22.266;2022-10-17T17:52:11;11.43;89.36
75387;DHT22;63966;47.914;22.266;2022-10-17T17:55:15;11.36;89.38
75387;DHT22;63966;47.914;22.266;2022-10-17T17:58:18;11.29;89.37
75387;DHT22;63966;47.914;22.266;2022-10-17T18:01:24;11.21;89.36
75387;DHT22;63966;47.914;22.266;2022-10-17T18:04:27;11.12;89.32
75387;DHT22;63966;47.914;22.266;2022-10-17T18:07:31;11.01;89.19
75387;DHT22;63966;47.914;22.266;2022-10-17T18:10:36;11.00;89.46
75387;DHT22;63966;47.914;22.266;2022-10-17T18:13:39;10.97;89.87
75387;DHT22;63966;47.914;22.266;2022-10-17T18:16:43;10.93;90.05
75387;DHT22;63966;47.914;22.266;2022-10-17T18:19:46;10.90;90.02
75387;DHT22;63966;47.914;22.266;2022-10-17T18:22:50;10.84;89.63
75387;DHT22;63966;47.914;22.266;2022-10-17T18:25:56;10.80;90.03
75387;DHT22;63966;47.914;22.266;2022-10-17T18:29:00;10.74;90.29
75387;DHT22;63966;47.914;22.266;2022-10-17T18:32:04;10.66;91.06
75387;DHT22;63966;47.914;22.266;2022-10-17T18:35:08;10.66;91.02
75387;DHT22;63966;47.914;22.266;2022-10-17T18:38:11;10.66;91.08
75387;DHT22;63966;47.914;22.266;2022-10-17T18:41:16;10.64;91.14
75387;DHT22;63966;47.914;22.266;2022-10-17T18:44:20;10.57;90.77
75387;DHT22;63966;47.914;22.266;2022-10-17T18:47:23;10.53;90.46
75387;DHT22;63966;47.914;22.266;2022-10-17T18:50:27;10.49;90.48
75387;DHT22;63966;47.914;22.266;2022-10-17T18:53:30;10.46;90.23
75387;DHT22;63966;47.914;22.266;2022-10-17T18:56:34;10.42;90.79
75387;DHT22;63966;47.914;22.266;2022-10-17T18:59:37;10.38;90.95
75387;DHT22;63966;47.914;22.266;2022-10-17T19:02:41;10.31;91.04
75387;DHT22;63966;47.914;22.266;2022-10-17T19:05:45;10.25;91.04
75387;DHT22;63966;47.914;22.266;2022-10-17T19:08:49;10.14;89.67
75387;DHT22;63966;47.914;22.266;2022-10-17T19:11:53;10.07;90.04
75387;DHT22;63966;47.914;22.266;2022-10-17T19:14:56;10.07;90.26
75387;DHT22;63966;47.914;22.266;2022-10-17T19:18:00;10.05;90.86
75387;DHT22;63966;47.914;22.266;2022-10-17T19:21:06;10.04;91.21
75387;DHT22;63966;47.914;22.266;2022-10-17T19:24:28;10.05;91.40
75387;DHT22;63966;47.914;22.266;2022-10-17T19:27:32;10.02;90.70
75387;DHT22;63966;47.914;22.266;2022-10-17T19:30:35;9.94;90.45
75387;DHT22;63966;47.914;22.266;2022-10-17T19:33:39;9.88;90.63
75387;DHT22;63966;47.914;22.266;2022-10-17T19:36:42;9.80;90.60
75387;DHT22;63966;47.914;22.266;2022-10-17T19:39:47;9.76;90.78
75387;DHT22;63966;47.914;22.266;2022-10-17T19:42:51;9.76;90.81
75387;DHT22;63966;47.914;22.266;2022-10-17T19:45:56;9.71;90.86
75387;DHT22;63966;47.914;22.266;2022-10-17T19:49:01;9.70;90.85
75387;DHT22;63966;47.914;22.266;2022-10-17T19:52:05;9.64;90.20
75387;DHT22;63966;47.914;22.266;2022-10-17T19:55:08;9.61;90.60
75387;DHT22;63966;47.914;22.266;2022-10-17T19:58:12;9.59;90.01
75387;DHT22;63966;47.914;22.266;2022-10-17T20:01:21;9.57;89.92
75387;DHT22;63966;47.914;22.266;2022-10-17T20:04:24;9.53;90.46
75387;DHT22;63966;47.914;22.266;2022-10-17T20:07:28;9.53;90.79
75387;DHT22;63966;47.914;22.266;2022-10-17T20:10:33;9.49;91.17
75387;DHT22;63966;47.914;22.266;2022-10-17T20:13:37;9.39;90.76
75387;DHT22;63966;47.914;22.266;2022-10-17T20:16:40;9.38;90.39
75387;DHT22;63966;47.914;22.266;2022-10-17T20:19:44;9.33;90.67
75387;DHT22;63966;47.914;22.266;2022-10-17T20:22:47;9.30;90.30
75387;DHT22;63966;47.914;22.266;2022-10-17T20:25:57;9.25;90.41
75387;DHT22;63966;47.914;22.266;2022-10-17T20:29:21;9.23;91.05
75387;DHT22;63966;47.914;22.266;2022-10-17T20:32:29;9.25;91.33
75387;DHT22;63966;47.914;22.266;2022-10-17T20:35:33;9.23;91.09
75387;DHT22;63966;47.914;22.266;2022-10-17T20:38:37;9.19;90.77
75387;DHT22;63966;47.914;22.266;2022-10-17T20:41:41;9.14;90.41
75387;DHT22;63966;47.914;22.266;2022-10-17T20:44:44;9.09;91.02
75387;DHT22;63966;47.914;22.266;2022-10-17T20:47:50;9.05;91.31
75387;DHT22;63966;47.914;22.266;2022-10-17T20:50:56;9.09;91.21
75387;DHT22;63966;47.914;22.266;2022-10-17T20:54:00;9.01;90.76
75387;DHT22;63966;47.914;22.266;2022-10-17T20:57:05;8.95;90.59
75387;DHT22;63966;47.914;22.266;2022-10-17T21:00:09;8.88;89.89
75387;DHT22;63966;47.914;22.266;2022-10-17T21:03:12;8.78;89.46
75387;DHT22;63966;47.914;22.266;2022-10-17T21:06:17;8.68;89.28
75387;DHT22;63966;47.914;22.266;2022-10-17T21:09:20;8.61;89.50
75387;DHT22;63966;47.914;22.266;2022-10-17T21:12:24;8.60;89.63
75387;DHT22;63966;47.914;22.266;2022-10-17T21:15:38;8.56;89.56
75387;DHT22;63966;47.914;22.266;2022-10-17T21:18:42;8.53;89.71